sensor_id;sensor_type;location;lat;lon;timestamp;P1;durP1;ratioP1;P2;durP2;ratioP2
12275;SDS011;6200;48.144;11.424;2023-03-15T00:01:38;0.30;;;0.30;;
12275;SDS011;6200;48.144;11.424;2023-03-15T00:04:04;0.20;;;0.20;;
12275;SDS011;6200;48.144;11.424;2023-03-15T00:06:30;0.30;;;0.30;;
12275;SDS011;6200;48.144;11.424;2023-03-15T00:08:59;0.40;;;0.40;;
12275;SDS011;6200;48.144;11.424;2023-03-15T00:11:26;0.33;;;0.33;;
12275;SDS011;6200;48.144;11.424;2023-03-15T00:13:54;0.30;;;0.30;;
12275;SDS011;6200;48.144;11.424;2023-03-15T00:16:23;0.30;;;0.30;;
12275;SDS011;6200;48.144;11.424;2023-03-15T00:18:52;0.40;;;0.40;;
12275;SDS011;6200;48.144;11.424;2023-03-15T00:21:18;0.20;;;0.20;;
12275;SDS011;6200;48.144;11.424;2023-03-15T00:23:44;0.30;;;0.30;;
12275;SDS011;6200;48.144;11.424;2023-03-15T00:26:10;0.30;;;0.30;;
12275;SDS011;6200;48.144;11.424;2023-03-15T00:28:37;0.30;;;0.30;;
12275;SDS011;6200;48.144;11.424;2023-03-15T00:31:14;0.30;;;0.30;;
12275;SDS011;6200;48.144;11.424;2023-03-15T00:33:43;0.30;;;0.30;;
12275;SDS011;6200;48.144;11.424;2023-03-15T00:36:10;0.30;;;0.30;;
12275;SDS011;6200;48.144;11.424;2023-03-15T00:38:37;0.30;;;0.30;;
12275;SDS011;6200;48.144;11.424;2023-03-15T00:41:11;0.27;;;0.27;;
12275;SDS011;6200;48.144;11.424;2023-03-15T00:43:38;0.20;;;0.20;;
12275;SDS011;6200;48.144;11.424;2023-03-15T00:46:04;0.30;;;0.30;;
12275;SDS011;6200;48.144;11.424;2023-03-15T00:48:30;0.30;;;0.30;;
12275;SDS011;6200;48.144;11.424;2023-03-15T00:51:00;0.20;;;0.20;;
12275;SDS011;6200;48.144;11.424;2023-03-15T00:53:27;0.20;;;0.20;;
12275;SDS011;6200;48.144;11.424;2023-03-15T00:55:53;0.30;;;0.30;;
12275;SDS011;6200;48.144;11.424;2023-03-15T00:58:18;0.30;;;0.30;;
12275;SDS011;6200;48.144;11.424;2023-03-15T01:00:44;0.40;;;0.40;;
12275;SDS011;6200;48.144;11.424;2023-03-15T01:03:09;0.40;;;0.40;;
12275;SDS011;6200;48.144;11.424;2023-03-15T01:05:35;0.40;;;0.40;;
12275;SDS011;6200;48.144;11.424;2023-03-15T01:08:00;0.40;;;0.40;;
12275;SDS011;6200;48.144;11.424;2023-03-15T01:10:27;0.30;;;0.30;;
12275;SDS011;6200;48.144;11.424;2023-03-15T01:12:52;0.53;;;0.53;;
12275;SDS011;6200;48.144;11.424;2023-03-15T01:15:18;0.40;;;0.40;;
12275;SDS011;6200;48.144;11.424;2023-03-15T01:17:43;0.30;;;0.30;;
12275;SDS011;6200;48.144;11.424;2023-03-15T01:20:13;0.37;;;0.37;;
12275;SDS011;6200;48.144;11.424;2023-03-15T01:22:39;0.50;;;0.50;;
12275;SDS011;6200;48.144;11.424;2023-03-15T01:25:05;0.40;;;0.40;;
12275;SDS011;6200;48.144;11.424;2023-03-15T01:27:31;0.30;;;0.30;;
12275;SDS011;6200;48.144;11.424;2023-03-15T01:29:56;0.40;;;0.40;;
12275;SDS011;6200;48.144;11.424;2023-03-15T01:32:22;0.40;;;0.40;;
12275;SDS011;6200;48.144;11.424;2023-03-15T01:34:48;0.40;;;0.40;;
12275;SDS011;6200;48.144;11.424;2023-03-15T01:37:13;0.50;;;0.50;;
12275;SDS011;6200;48.144;11.424;2023-03-15T01:39:39;0.40;;;0.40;;
12275;SDS011;6200;48.144;11.424;2023-03-15T01:42:06;0.40;;;0.40;;
12275;SDS011;6200;48.144;11.424;2023-03-15T01:47:17;0.33;;;0.33;;
12275;SDS011;6200;48.144;11.424;2023-03-15T01:49:45;0.50;;;0.50;;
12275;SDS011;6200;48.144;11.424;2023-03-15T01:52:17;0.60;;;0.60;;
12275;SDS011;6200;48.144;11.424;2023-03-15T01:54:59;0.30;;;0.30;;
12275;SDS011;6200;48.144;11.424;2023-03-15T01:57:32;0.40;;;0.40;;
12275;SDS011;6200;48.144;11.424;2023-03-15T02:00:04;0.30;;;0.30;;
12275;SDS011;6200;48.144;11.424;2023-03-15T02:02:37;0.30;;;0.30;;
12275;SDS011;6200;48.144;11.424;2023-03-15T02:05:10;0.30;;;0.30;;
12275;SDS011;6200;48.144;11.424;2023-03-15T02:07:42;0.30;;;0.30;;
12275;SDS011;6200;48.144;11.424;2023-03-15T02:10:14;0.40;;;0.40;;
12275;SDS011;6200;48.144;11.424;2023-03-15T02:12:48;0.50;;;0.50;;
12275;SDS011;6200;48.144;11.424;2023-03-15T02:15:16;0.40;;;0.40;;
12275;SDS011;6200;48.144;11.424;2023-03-15T02:17:43;0.40;;;0.40;;
12275;SDS011;6200;48.144;11.424;2023-03-15T02:20:15;0.40;;;0.40;;
12275;SDS011;6200;48.144;11.424;2023-03-15T02:28:12;0.30;;;0.30;;
12275;SDS011;6200;48.144;11.424;2023-03-15T02:30:39;0.40;;;0.40;;
12275;SDS011;6200;48.144;11.424;2023-03-15T02:33:07;0.40;;;0.40;;
12275;SDS011;6200;48.144;11.424;2023-03-15T02:35:53;0.30;;;0.30;;
12275;SDS011;6200;48.144;11.424;2023-03-15T02:38:19;0.40;;;0.40;;
12275;SDS011;6200;48.144;11.424;2023-03-15T02:40:46;0.40;;;0.40;;
12275;SDS011;6200;48.144;11.424;2023-03-15T02:43:14;0.40;;;0.40;;
12275;SDS011;6200;48.144;11.424;2023-03-15T02:45:42;0.40;;;0.40;;
12275;SDS011;6200;48.144;11.424;2023-03-15T02:48:09;0.40;;;0.40;;
12275;SDS011;6200;48.144;11.424;2023-03-15T02:50:35;0.50;;;0.50;;
12275;SDS011;6200;48.144;11.424;2023-03-15T02:53:01;0.40;;;0.40;;
12275;SDS011;6200;48.144;11.424;2023-03-15T02:55:27;0.50;;;0.50;;
12275;SDS011;6200;48.144;11.424;2023-03-15T02:57:53;0.50;;;0.50;;
12275;SDS011;6200;48.144;11.424;2023-03-15T03:00:19;0.50;;;0.50;;
12275;SDS011;6200;48.144;11.424;2023-03-15T03:02:45;0.40;;;0.40;;
12275;SDS011;6200;48.144;11.424;2023-03-15T03:05:12;0.30;;;0.30;;
12275;SDS011;6200;48.144;11.424;2023-03-15T03:07:39;0.40;;;0.40;;
12275;SDS011;6200;48.144;11.424;2023-03-15T03:10:07;0.40;;;0.40;;
12275;SDS011;6200;48.144;11.424;2023-03-15T03:12:34;0.50;;;0.50;;
12275;SDS011;6200;48.144;11.424;2023-03-15T03:15:00;0.50;;;0.50;;
12275;SDS011;6200;48.144;11.424;2023-03-15T03:17:27;0.50;;;0.50;;
12275;SDS011;6200;48.144;11.424;2023-03-15T03:19:53;0.40;;;0.40;;
12275;SDS011;6200;48.144;11.424;2023-03-15T03:22:18;0.40;;;0.40;;
12275;SDS011;6200;48.144;11.424;2023-03-15T03:24:44;0.60;;;0.60;;
12275;SDS011;6200;48.144;11.424;2023-03-15T03:27:11;0.30;;;0.30;;
12275;SDS011;6200;48.144;11.424;2023-03-15T03:29:39;0.50;;;0.50;;
12275;SDS011;6200;48.144;11.424;2023-03-15T03:32:05;0.40;;;0.40;;
12275;SDS011;6200;48.144;11.424;2023-03-15T03:34:31;0.57;;;0.57;;
12275;SDS011;6200;48.144;11.424;2023-03-15T03:36:56;0.40;;;0.40;;
12275;SDS011;6200;48.144;11.424;2023-03-15T03:39:22;0.50;;;0.50;;
12275;SDS011;6200;48.144;11.424;2023-03-15T03:41:47;0.43;;;0.43;;
12275;SDS011;6200;48.144;11.424;2023-03-15T03:44:13;0.50;;;0.50;;
12275;SDS011;6200;48.144;11.424;2023-03-15T03:46:39;0.40;;;0.40;;
12275;SDS011;6200;48.144;11.424;2023-03-15T03:49:05;0.40;;;0.40;;
12275;SDS011;6200;48.144;11.424;2023-03-15T03:51:30;0.50;;;0.50;;
12275;SDS011;6200;48.144;11.424;2023-03-15T03:53:58;0.40;;;0.40;;
12275;SDS011;6200;48.144;11.424;2023-03-15T03:56:23;0.60;;;0.60;;
12275;SDS011;6200;48.144;11.424;2023-03-15T03:58:49;0.50;;;0.50;;
12275;SDS011;6200;48.144;11.424;2023-03-15T04:01:15;0.30;;;0.30;;
12275;SDS011;6200;48.144;11.424;2023-03-15T04:03:40;0.47;;;0.47;;
12275;SDS011;6200;48.144;11.424;2023-03-15T04:06:06;0.50;;;0.50;;
12275;SDS011;6200;48.144;11.424;2023-03-15T04:08:32;0.60;;;0.60;;
12275;SDS011;6200;48.144;11.424;2023-03-15T04:10:58;0.37;;;0.37;;
12275;SDS011;6200;48.144;11.424;2023-03-15T04:13:23;0.37;;;0.37;;
12275;SDS011;6200;48.144;11.424;2023-03-15T04:15:50;0.43;;;0.43;;
12275;SDS011;6200;48.144;11.424;2023-03-15T04:18:15;0.47;;;0.47;;
12275;SDS011;6200;48.144;11.424;2023-03-15T04:20:42;0.43;;;0.43;;
12275;SDS011;6200;48.144;11.424;2023-03-15T04:23:11;0.60;;;0.60;;
12275;SDS011;6200;48.144;11.424;2023-03-15T04:25:37;0.50;;;0.50;;
12275;SDS011;6200;48.144;11.424;2023-03-15T04:28:03;0.47;;;0.47;;
12275;SDS011;6200;48.144;11.424;2023-03-15T04:30:29;0.40;;;0.40;;
12275;SDS011;6200;48.144;11.424;2023-03-15T04:32:55;0.60;;;0.60;;
12275;SDS011;6200;48.144;11.424;2023-03-15T04:35:27;0.60;;;0.60;;
12275;SDS011;6200;48.144;11.424;2023-03-15T04:37:54;0.40;;;0.40;;
12275;SDS011;6200;48.144;11.424;2023-03-15T04:40:20;0.40;;;0.40;;
12275;SDS011;6200;48.144;11.424;2023-03-15T04:42:48;0.40;;;0.40;;
12275;SDS011;6200;48.144;11.424;2023-03-15T04:45:14;0.50;;;0.50;;
12275;SDS011;6200;48.144;11.424;2023-03-15T04:47:40;0.40;;;0.40;;
12275;SDS011;6200;48.144;11.424;2023-03-15T04:50:06;0.50;;;0.50;;
12275;SDS011;6200;48.144;11.424;2023-03-15T04:52:33;0.50;;;0.50;;
12275;SDS011;6200;48.144;11.424;2023-03-15T04:54:59;0.47;;;0.47;;
12275;SDS011;6200;48.144;11.424;2023-03-15T04:57:24;0.50;;;0.50;;
12275;SDS011;6200;48.144;11.424;2023-03-15T04:59:50;0.50;;;0.50;;
12275;SDS011;6200;48.144;11.424;2023-03-15T05:02:15;0.30;;;0.30;;
12275;SDS011;6200;48.144;11.424;2023-03-15T05:04:41;0.50;;;0.50;;
12275;SDS011;6200;48.144;11.424;2023-03-15T05:07:07;0.40;;;0.40;;
12275;SDS011;6200;48.144;11.424;2023-03-15T05:09:32;0.47;;;0.47;;
12275;SDS011;6200;48.144;11.424;2023-03-15T05:12:02;0.40;;;0.40;;
12275;SDS011;6200;48.144;11.424;2023-03-15T05:14:28;0.30;;;0.30;;
12275;SDS011;6200;48.144;11.424;2023-03-15T05:16:54;0.50;;;0.50;;
12275;SDS011;6200;48.144;11.424;2023-03-15T05:19:22;0.37;;;0.37;;
12275;SDS011;6200;48.144;11.424;2023-03-15T05:21:48;0.40;;;0.40;;
12275;SDS011;6200;48.144;11.424;2023-03-15T05:24:13;0.30;;;0.30;;
12275;SDS011;6200;48.144;11.424;2023-03-15T05:26:39;0.30;;;0.30;;
12275;SDS011;6200;48.144;11.424;2023-03-15T05:29:04;0.40;;;0.40;;
12275;SDS011;6200;48.144;11.424;2023-03-15T05:31:30;0.40;;;0.40;;
12275;SDS011;6200;48.144;11.424;2023-03-15T05:34:00;0.40;;;0.40;;
12275;SDS011;6200;48.144;11.424;2023-03-15T05:36:28;0.40;;;0.40;;
12275;SDS011;6200;48.144;11.424;2023-03-15T05:38:54;0.50;;;0.50;;
12275;SDS011;6200;48.144;11.424;2023-03-15T05:41:21;0.50;;;0.50;;
12275;SDS011;6200;48.144;11.424;2023-03-15T05:43:46;0.40;;;0.40;;
12275;SDS011;6200;48.144;11.424;2023-03-15T05:46:12;0.50;;;0.50;;
12275;SDS011;6200;48.144;11.424;2023-03-15T05:48:37;0.50;;;0.50;;
12275;SDS011;6200;48.144;11.424;2023-03-15T05:51:03;0.60;;;0.60;;
12275;SDS011;6200;48.144;11.424;2023-03-15T05:53:28;0.40;;;0.40;;
12275;SDS011;6200;48.144;11.424;2023-03-15T05:55:54;0.50;;;0.50;;
12275;SDS011;6200;48.144;11.424;2023-03-15T05:58:20;0.40;;;0.40;;
12275;SDS011;6200;48.144;11.424;2023-03-15T06:00:45;0.50;;;0.50;;
12275;SDS011;6200;48.144;11.424;2023-03-15T06:03:11;0.50;;;0.50;;
12275;SDS011;6200;48.144;11.424;2023-03-15T06:05:36;0.40;;;0.40;;
12275;SDS011;6200;48.144;11.424;2023-03-15T06:08:02;0.40;;;0.40;;
12275;SDS011;6200;48.144;11.424;2023-03-15T06:10:27;0.40;;;0.40;;
12275;SDS011;6200;48.144;11.424;2023-03-15T06:12:53;0.40;;;0.40;;
12275;SDS011;6200;48.144;11.424;2023-03-15T06:15:19;0.40;;;0.40;;
12275;SDS011;6200;48.144;11.424;2023-03-15T06:17:44;0.50;;;0.50;;
12275;SDS011;6200;48.144;11.424;2023-03-15T06:20:10;0.50;;;0.50;;
12275;SDS011;6200;48.144;11.424;2023-03-15T06:22:36;0.50;;;0.50;;
12275;SDS011;6200;48.144;11.424;2023-03-15T06:25:02;0.30;;;0.30;;
12275;SDS011;6200;48.144;11.424;2023-03-15T06:27:28;0.40;;;0.40;;
12275;SDS011;6200;48.144;11.424;2023-03-15T06:29:53;0.40;;;0.40;;
12275;SDS011;6200;48.144;11.424;2023-03-15T06:32:20;0.50;;;0.50;;
12275;SDS011;6200;48.144;11.424;2023-03-15T06:34:45;0.50;;;0.50;;
12275;SDS011;6200;48.144;11.424;2023-03-15T06:37:11;0.60;;;0.60;;
12275;SDS011;6200;48.144;11.424;2023-03-15T06:39:37;0.40;;;0.40;;
12275;SDS011;6200;48.144;11.424;2023-03-15T06:42:03;0.40;;;0.40;;
12275;SDS011;6200;48.144;11.424;2023-03-15T06:44:32;0.60;;;0.60;;
12275;SDS011;6200;48.144;11.424;2023-03-15T06:47:00;0.40;;;0.40;;
12275;SDS011;6200;48.144;11.424;2023-03-15T06:49:26;0.50;;;0.50;;
12275;SDS011;6200;48.144;11.424;2023-03-15T06:51:52;0.40;;;0.40;;
12275;SDS011;6200;48.144;11.424;2023-03-15T06:54:17;0.50;;;0.50;;
12275;SDS011;6200;48.144;11.424;2023-03-15T06:56:43;0.50;;;0.50;;
12275;SDS011;6200;48.144;11.424;2023-03-15T06:59:08;0.40;;;0.40;;
12275;SDS011;6200;48.144;11.424;2023-03-15T07:01:34;0.40;;;0.40;;
12275;SDS011;6200;48.144;11.424;2023-03-15T07:04:00;0.50;;;0.50;;
12275;SDS011;6200;48.144;11.424;2023-03-15T07:06:26;0.50;;;0.50;;
12275;SDS011;6200;48.144;11.424;2023-03-15T07:08:52;0.40;;;0.40;;
12275;SDS011;6200;48.144;11.424;2023-03-15T07:11:18;0.50;;;0.50;;
12275;SDS011;6200;48.144;11.424;2023-03-15T07:13:44;0.40;;;0.40;;
12275;SDS011;6200;48.144;11.424;2023-03-15T07:16:10;0.33;;;0.33;;
12275;SDS011;6200;48.144;11.424;2023-03-15T07:18:36;0.40;;;0.40;;
12275;SDS011;6200;48.144;11.424;2023-03-15T07:21:02;0.40;;;0.40;;
12275;SDS011;6200;48.144;11.424;2023-03-15T07:23:29;0.40;;;0.40;;
12275;SDS011;6200;48.144;11.424;2023-03-15T07:25:56;0.40;;;0.40;;
12275;SDS011;6200;48.144;11.424;2023-03-15T07:28:22;0.40;;;0.40;;
12275;SDS011;6200;48.144;11.424;2023-03-15T07:33:25;0.43;;;0.43;;
12275;SDS011;6200;48.144;11.424;2023-03-15T07:35:51;0.47;;;0.47;;
12275;SDS011;6200;48.144;11.424;2023-03-15T07:38:17;0.40;;;0.40;;
12275;SDS011;6200;48.144;11.424;2023-03-15T07:40:43;0.30;;;0.30;;
12275;SDS011;6200;48.144;11.424;2023-03-15T07:43:09;0.40;;;0.40;;
12275;SDS011;6200;48.144;11.424;2023-03-15T07:45:35;0.30;;;0.30;;
12275;SDS011;6200;48.144;11.424;2023-03-15T07:48:00;0.30;;;0.30;;
12275;SDS011;6200;48.144;11.424;2023-03-15T07:50:26;0.40;;;0.40;;
12275;SDS011;6200;48.144;11.424;2023-03-15T07:52:52;0.30;;;0.30;;
12275;SDS011;6200;48.144;11.424;2023-03-15T07:55:17;0.30;;;0.30;;
12275;SDS011;6200;48.144;11.424;2023-03-15T07:57:43;0.30;;;0.30;;
12275;SDS011;6200;48.144;11.424;2023-03-15T08:00:08;0.57;;;0.57;;
12275;SDS011;6200;48.144;11.424;2023-03-15T08:02:36;0.30;;;0.30;;
12275;SDS011;6200;48.144;11.424;2023-03-15T08:05:02;0.40;;;0.40;;
12275;SDS011;6200;48.144;11.424;2023-03-15T08:07:28;0.30;;;0.30;;
12275;SDS011;6200;48.144;11.424;2023-03-15T08:09:54;0.30;;;0.30;;
12275;SDS011;6200;48.144;11.424;2023-03-15T08:12:22;0.30;;;0.30;;
12275;SDS011;6200;48.144;11.424;2023-03-15T08:14:48;0.27;;;0.27;;
12275;SDS011;6200;48.144;11.424;2023-03-15T08:17:15;0.30;;;0.30;;
12275;SDS011;6200;48.144;11.424;2023-03-15T08:19:41;0.20;;;0.20;;
12275;SDS011;6200;48.144;11.424;2023-03-15T08:22:06;0.30;;;0.30;;
12275;SDS011;6200;48.144;11.424;2023-03-15T08:24:32;0.30;;;0.30;;
12275;SDS011;6200;48.144;11.424;2023-03-15T08:26:58;0.40;;;0.40;;
12275;SDS011;6200;48.144;11.424;2023-03-15T08:29:23;0.20;;;0.20;;
12275;SDS011;6200;48.144;11.424;2023-03-15T08:31:49;0.23;;;0.23;;
12275;SDS011;6200;48.144;11.424;2023-03-15T08:34:14;0.20;;;0.20;;
12275;SDS011;6200;48.144;11.424;2023-03-15T08:36:40;0.30;;;0.30;;
12275;SDS011;6200;48.144;11.424;2023-03-15T08:39:06;0.30;;;0.30;;
12275;SDS011;6200;48.144;11.424;2023-03-15T08:41:32;0.20;;;0.20;;
12275;SDS011;6200;48.144;11.424;2023-03-15T08:43:58;0.20;;;0.20;;
12275;SDS011;6200;48.144;11.424;2023-03-15T08:46:25;0.30;;;0.30;;
12275;SDS011;6200;48.144;11.424;2023-03-15T08:48:51;0.30;;;0.30;;
12275;SDS011;6200;48.144;11.424;2023-03-15T08:51:17;0.23;;;0.23;;
12275;SDS011;6200;48.144;11.424;2023-03-15T08:53:43;0.20;;;0.20;;
12275;SDS011;6200;48.144;11.424;2023-03-15T08:56:09;0.23;;;0.23;;
12275;SDS011;6200;48.144;11.424;2023-03-15T08:58:35;0.20;;;0.20;;
12275;SDS011;6200;48.144;11.424;2023-03-15T09:01:01;0.20;;;0.20;;
12275;SDS011;6200;48.144;11.424;2023-03-15T09:03:26;0.30;;;0.30;;
12275;SDS011;6200;48.144;11.424;2023-03-15T09:05:58;0.20;;;0.20;;
12275;SDS011;6200;48.144;11.424;2023-03-15T09:08:24;0.30;;;0.30;;
12275;SDS011;6200;48.144;11.424;2023-03-15T09:10:53;0.30;;;0.30;;
12275;SDS011;6200;48.144;11.424;2023-03-15T09:13:20;0.37;;;0.37;;
12275;SDS011;6200;48.144;11.424;2023-03-15T09:15:47;0.30;;;0.30;;
12275;SDS011;6200;48.144;11.424;2023-03-15T09:18:14;0.30;;;0.30;;
12275;SDS011;6200;48.144;11.424;2023-03-15T09:20:39;0.20;;;0.20;;
12275;SDS011;6200;48.144;11.424;2023-03-15T09:23:05;0.20;;;0.20;;
12275;SDS011;6200;48.144;11.424;2023-03-15T09:25:31;0.20;;;0.20;;
12275;SDS011;6200;48.144;11.424;2023-03-15T09:27:57;0.20;;;0.20;;
12275;SDS011;6200;48.144;11.424;2023-03-15T09:30:22;0.20;;;0.20;;
12275;SDS011;6200;48.144;11.424;2023-03-15T09:32:48;0.20;;;0.20;;
12275;SDS011;6200;48.144;11.424;2023-03-15T09:35:16;0.20;;;0.20;;
12275;SDS011;6200;48.144;11.424;2023-03-15T09:37:43;0.20;;;0.20;;
12275;SDS011;6200;48.144;11.424;2023-03-15T09:46:17;0.20;;;0.20;;
12275;SDS011;6200;48.144;11.424;2023-03-15T09:48:37;0.20;;;0.20;;
12275;SDS011;6200;48.144;11.424;2023-03-15T09:51:12;0.20;;;0.20;;
12275;SDS011;6200;48.144;11.424;2023-03-15T09:56:37;0.20;;;0.20;;
12275;SDS011;6200;48.144;11.424;2023-03-15T09:59:06;0.20;;;0.20;;
12275;SDS011;6200;48.144;11.424;2023-03-15T10:01:34;0.20;;;0.20;;
12275;SDS011;6200;48.144;11.424;2023-03-15T10:04:21;0.20;;;0.20;;
12275;SDS011;6200;48.144;11.424;2023-03-15T10:06:48;0.20;;;0.20;;
12275;SDS011;6200;48.144;11.424;2023-03-15T10:09:19;0.20;;;0.20;;
12275;SDS011;6200;48.144;11.424;2023-03-15T10:12:03;0.20;;;0.20;;
12275;SDS011;6200;48.144;11.424;2023-03-15T10:14:45;0.20;;;0.20;;
12275;SDS011;6200;48.144;11.424;2023-03-15T10:17:23;0.20;;;0.20;;
12275;SDS011;6200;48.144;11.424;2023-03-15T10:19:52;0.30;;;0.30;;
12275;SDS011;6200;48.144;11.424;2023-03-15T10:25:15;0.20;;;0.20;;
12275;SDS011;6200;48.144;11.424;2023-03-15T10:27:54;0.20;;;0.20;;
12275;SDS011;6200;48.144;11.424;2023-03-15T10:30:25;0.20;;;0.20;;
12275;SDS011;6200;48.144;11.424;2023-03-15T10:35:53;0.20;;;0.20;;
12275;SDS011;6200;48.144;11.424;2023-03-15T10:38:20;0.20;;;0.20;;
12275;SDS011;6200;48.144;11.424;2023-03-15T10:40:51;0.20;;;0.20;;
12275;SDS011;6200;48.144;11.424;2023-03-15T10:43:19;0.20;;;0.20;;
12275;SDS011;6200;48.144;11.424;2023-03-15T10:46:11;0.20;;;0.20;;
12275;SDS011;6200;48.144;11.424;2023-03-15T10:54:01;0.20;;;0.20;;
12275;SDS011;6200;48.144;11.424;2023-03-15T10:56:48;0.20;;;0.20;;
12275;SDS011;6200;48.144;11.424;2023-03-15T10:59:33;0.20;;;0.20;;
12275;SDS011;6200;48.144;11.424;2023-03-15T11:04:41;0.20;;;0.20;;
12275;SDS011;6200;48.144;11.424;2023-03-15T11:07:11;0.20;;;0.20;;
12275;SDS011;6200;48.144;11.424;2023-03-15T11:09:51;0.20;;;0.20;;
12275;SDS011;6200;48.144;11.424;2023-03-15T11:12:22;0.20;;;0.20;;
12275;SDS011;6200;48.144;11.424;2023-03-15T11:14:49;0.20;;;0.20;;
12275;SDS011;6200;48.144;11.424;2023-03-15T11:17:21;0.20;;;0.20;;
12275;SDS011;6200;48.144;11.424;2023-03-15T11:19:55;0.20;;;0.20;;
12275;SDS011;6200;48.144;11.424;2023-03-15T11:22:38;0.20;;;0.20;;
12275;SDS011;6200;48.144;11.424;2023-03-15T11:25:04;0.30;;;0.30;;
12275;SDS011;6200;48.144;11.424;2023-03-15T11:27:36;0.20;;;0.20;;
12275;SDS011;6200;48.144;11.424;2023-03-15T11:30:02;0.20;;;0.20;;
12275;SDS011;6200;48.144;11.424;2023-03-15T11:32:29;0.20;;;0.20;;
12275;SDS011;6200;48.144;11.424;2023-03-15T11:34:59;0.20;;;0.20;;
12275;SDS011;6200;48.144;11.424;2023-03-15T11:37:34;0.20;;;0.20;;
12275;SDS011;6200;48.144;11.424;2023-03-15T11:43:05;0.20;;;0.20;;
12275;SDS011;6200;48.144;11.424;2023-03-15T11:48:15;0.20;;;0.20;;
12275;SDS011;6200;48.144;11.424;2023-03-15T11:50:45;0.20;;;0.20;;
12275;SDS011;6200;48.144;11.424;2023-03-15T11:53:12;0.20;;;0.20;;
12275;SDS011;6200;48.144;11.424;2023-03-15T11:55:40;0.20;;;0.20;;
12275;SDS011;6200;48.144;11.424;2023-03-15T11:58:27;0.20;;;0.20;;
12275;SDS011;6200;48.144;11.424;2023-03-15T12:01:00;0.20;;;0.20;;
12275;SDS011;6200;48.144;11.424;2023-03-15T12:03:34;0.20;;;0.20;;
12275;SDS011;6200;48.144;11.424;2023-03-15T12:06:13;0.20;;;0.20;;
12275;SDS011;6200;48.144;11.424;2023-03-15T12:09:01;0.20;;;0.20;;
12275;SDS011;6200;48.144;11.424;2023-03-15T12:11:47;0.20;;;0.20;;
12275;SDS011;6200;48.144;11.424;2023-03-15T12:14:21;0.20;;;0.20;;
12275;SDS011;6200;48.144;11.424;2023-03-15T12:16:53;0.20;;;0.20;;
12275;SDS011;6200;48.144;11.424;2023-03-15T12:19:44;0.23;;;0.23;;
12275;SDS011;6200;48.144;11.424;2023-03-15T12:22:14;0.20;;;0.20;;
12275;SDS011;6200;48.144;11.424;2023-03-15T12:24:41;0.20;;;0.20;;
12275;SDS011;6200;48.144;11.424;2023-03-15T12:27:14;0.20;;;0.20;;
12275;SDS011;6200;48.144;11.424;2023-03-15T12:29:44;0.20;;;0.20;;
12275;SDS011;6200;48.144;11.424;2023-03-15T12:32:11;0.20;;;0.20;;
12275;SDS011;6200;48.144;11.424;2023-03-15T12:37:19;0.20;;;0.20;;
12275;SDS011;6200;48.144;11.424;2023-03-15T12:48:13;0.20;;;0.20;;
12275;SDS011;6200;48.144;11.424;2023-03-15T12:53:13;0.20;;;0.20;;
12275;SDS011;6200;48.144;11.424;2023-03-15T12:55:46;0.20;;;0.20;;
12275;SDS011;6200;48.144;11.424;2023-03-15T12:58:13;0.20;;;0.20;;
12275;SDS011;6200;48.144;11.424;2023-03-15T13:00:41;0.20;;;0.20;;
12275;SDS011;6200;48.144;11.424;2023-03-15T13:05:58;0.20;;;0.20;;
12275;SDS011;6200;48.144;11.424;2023-03-15T13:13:49;0.20;;;0.20;;
12275;SDS011;6200;48.144;11.424;2023-03-15T13:16:40;0.20;;;0.20;;
12275;SDS011;6200;48.144;11.424;2023-03-15T13:27:02;0.23;;;0.23;;
12275;SDS011;6200;48.144;11.424;2023-03-15T13:29:35;0.20;;;0.20;;
12275;SDS011;6200;48.144;11.424;2023-03-15T13:34:40;0.20;;;0.20;;
12275;SDS011;6200;48.144;11.424;2023-03-15T13:37:13;0.20;;;0.20;;
12275;SDS011;6200;48.144;11.424;2023-03-15T13:39:56;0.20;;;0.20;;
12275;SDS011;6200;48.144;11.424;2023-03-15T13:42:25;0.20;;;0.20;;
12275;SDS011;6200;48.144;11.424;2023-03-15T13:47:49;0.20;;;0.20;;
12275;SDS011;6200;48.144;11.424;2023-03-15T13:50:17;0.20;;;0.20;;
12275;SDS011;6200;48.144;11.424;2023-03-15T13:52:44;0.20;;;0.20;;
12275;SDS011;6200;48.144;11.424;2023-03-15T13:55:14;0.20;;;0.20;;
12275;SDS011;6200;48.144;11.424;2023-03-15T13:57:43;0.20;;;0.20;;
12275;SDS011;6200;48.144;11.424;2023-03-15T14:00:13;0.20;;;0.20;;
12275;SDS011;6200;48.144;11.424;2023-03-15T14:02:44;0.20;;;0.20;;
12275;SDS011;6200;48.144;11.424;2023-03-15T14:05:13;0.20;;;0.20;;
12275;SDS011;6200;48.144;11.424;2023-03-15T14:07:46;0.20;;;0.20;;
12275;SDS011;6200;48.144;11.424;2023-03-15T14:12:58;0.20;;;0.20;;
12275;SDS011;6200;48.144;11.424;2023-03-15T14:15:41;0.20;;;0.20;;
12275;SDS011;6200;48.144;11.424;2023-03-15T14:18:20;0.20;;;0.20;;
12275;SDS011;6200;48.144;11.424;2023-03-15T14:20:52;0.30;;;0.30;;
12275;SDS011;6200;48.144;11.424;2023-03-15T14:23:24;0.20;;;0.20;;
12275;SDS011;6200;48.144;11.424;2023-03-15T14:25:51;0.20;;;0.20;;
12275;SDS011;6200;48.144;11.424;2023-03-15T14:28:18;0.20;;;0.20;;
12275;SDS011;6200;48.144;11.424;2023-03-15T14:30:53;0.20;;;0.20;;
12275;SDS011;6200;48.144;11.424;2023-03-15T14:33:27;0.20;;;0.20;;
12275;SDS011;6200;48.144;11.424;2023-03-15T14:35:56;0.20;;;0.20;;
12275;SDS011;6200;48.144;11.424;2023-03-15T14:38:24;0.20;;;0.20;;
12275;SDS011;6200;48.144;11.424;2023-03-15T14:41:08;0.20;;;0.20;;
12275;SDS011;6200;48.144;11.424;2023-03-15T14:43:48;0.20;;;0.20;;
12275;SDS011;6200;48.144;11.424;2023-03-15T14:46:14;0.20;;;0.20;;
12275;SDS011;6200;48.144;11.424;2023-03-15T14:48:40;0.20;;;0.20;;
12275;SDS011;6200;48.144;11.424;2023-03-15T14:51:05;0.20;;;0.20;;
12275;SDS011;6200;48.144;11.424;2023-03-15T14:53:36;0.20;;;0.20;;
12275;SDS011;6200;48.144;11.424;2023-03-15T14:56:02;0.20;;;0.20;;
12275;SDS011;6200;48.144;11.424;2023-03-15T14:58:28;0.20;;;0.20;;
12275;SDS011;6200;48.144;11.424;2023-03-15T15:00:54;0.20;;;0.20;;
12275;SDS011;6200;48.144;11.424;2023-03-15T15:05:55;0.20;;;0.20;;
12275;SDS011;6200;48.144;11.424;2023-03-15T15:08:20;0.20;;;0.20;;
12275;SDS011;6200;48.144;11.424;2023-03-15T15:10:47;0.20;;;0.20;;
12275;SDS011;6200;48.144;11.424;2023-03-15T15:13:16;0.20;;;0.20;;
12275;SDS011;6200;48.144;11.424;2023-03-15T15:15:47;0.20;;;0.20;;
12275;SDS011;6200;48.144;11.424;2023-03-15T15:18:13;0.20;;;0.20;;
12275;SDS011;6200;48.144;11.424;2023-03-15T15:20:39;0.20;;;0.20;;
12275;SDS011;6200;48.144;11.424;2023-03-15T15:23:19;0.20;;;0.20;;
12275;SDS011;6200;48.144;11.424;2023-03-15T15:25:59;0.20;;;0.20;;
12275;SDS011;6200;48.144;11.424;2023-03-15T15:28:27;0.20;;;0.20;;
12275;SDS011;6200;48.144;11.424;2023-03-15T15:30:54;0.27;;;0.27;;
12275;SDS011;6200;48.144;11.424;2023-03-15T15:33:19;0.20;;;0.20;;
12275;SDS011;6200;48.144;11.424;2023-03-15T15:35:46;0.30;;;0.30;;
12275;SDS011;6200;48.144;11.424;2023-03-15T15:38:28;0.20;;;0.20;;
12275;SDS011;6200;48.144;11.424;2023-03-15T15:40:58;0.20;;;0.20;;
12275;SDS011;6200;48.144;11.424;2023-03-15T15:43:24;0.20;;;0.20;;
12275;SDS011;6200;48.144;11.424;2023-03-15T15:45:49;0.20;;;0.20;;
12275;SDS011;6200;48.144;11.424;2023-03-15T15:48:15;0.20;;;0.20;;
12275;SDS011;6200;48.144;11.424;2023-03-15T15:50:40;0.30;;;0.30;;
12275;SDS011;6200;48.144;11.424;2023-03-15T15:53:06;0.30;;;0.30;;
12275;SDS011;6200;48.144;11.424;2023-03-15T15:55:33;0.20;;;0.20;;
12275;SDS011;6200;48.144;11.424;2023-03-15T15:58:00;0.23;;;0.23;;
12275;SDS011;6200;48.144;11.424;2023-03-15T16:00:27;0.20;;;0.20;;
12275;SDS011;6200;48.144;11.424;2023-03-15T16:02:53;0.20;;;0.20;;
12275;SDS011;6200;48.144;11.424;2023-03-15T16:05:21;0.20;;;0.20;;
12275;SDS011;6200;48.144;11.424;2023-03-15T16:07:49;0.30;;;0.30;;
12275;SDS011;6200;48.144;11.424;2023-03-15T16:10:19;0.20;;;0.20;;
12275;SDS011;6200;48.144;11.424;2023-03-15T16:12:50;0.20;;;0.20;;
12275;SDS011;6200;48.144;11.424;2023-03-15T16:15:17;0.20;;;0.20;;